Time;durP1;ratioP1;P1;durP2;ratioP2;P2;SDS_P1;SDS_P2;PMS_P1;PMS_P2;Temp;Humidity;BMP_temperature;BMP_pressure;BME280_temperature;BME280_humidity;BME280_pressure;Samples;Min_cycle;Max_cycle;Signal;HPM_P1;HPM_P2
2021/10/21 00:00:38;;;;;;;16.20;7.00;;;;;;;7.72;70.00;99964.25;27245;1217;3028087;-65
2021/10/21 00:03:07;;;;;;;16.70;7.40;;;;;;;7.53;70.69;99958.55;27216;1217;3026541;-70
2021/10/21 00:05:37;;;;;;;21.80;7.60;;;;;;;7.46;71.07;99953.27;27211;1217;3070318;-72
2021/10/21 00:08:06;;;;;;;17.30;7.10;;;;;;;7.38;71.50;99953.41;27215;1211;3028451;-66
2021/10/21 00:10:35;;;;;;;13.00;5.90;;;;;;;7.29;72.30;99947.83;27267;1217;3053205;-65
2021/10/21 00:13:04;;;;;;;11.50;5.60;;;;;;;7.64;71.51;99952.02;27229;1217;3026331;-71
2021/10/21 00:15:33;;;;;;;13.70;6.40;;;;;;;8.01;69.95;99946.65;27201;1217;3027234;-69
2021/10/21 00:18:03;;;;;;;18.00;7.20;;;;;;;7.94;70.48;99945.55;27198;1217;3052926;-69
2021/10/21 00:20:32;;;;;;;14.80;7.50;;;;;;;7.70;71.72;99946.21;27213;1210;3028032;-67
2021/10/21 00:23:01;;;;;;;16.40;7.40;;;;;;;7.59;72.29;99937.93;27184;1209;3026203;-69
2021/10/21 00:25:30;;;;;;;19.00;10.40;;;;;;;7.59;72.70;99934.99;27205;1217;3050699;-67
2021/10/21 15:23:04;;;;;;;36.70;11.40;;;;;;;13.99;51.20;99280.16;27188;1218;3050902;-73
2021/10/21 15:25:33;;;;;;;31.70;7.90;;;;;;;14.09;50.86;99267.23;27238;1216;3054689;-75
2021/10/21 15:28:02;;;;;;;36.40;7.50;;;;;;;13.97;51.52;99272.75;27233;1216;3025963;-66
2021/10/21 15:30:32;;;;;;;33.90;8.40;;;;;;;13.93;51.82;99265.14;27251;1216;3054799;-70
2021/10/21 15:33:01;;;;;;;34.90;10.00;;;;;;;13.82;52.55;99267.42;27263;1216;3026084;-68
2021/10/21 15:35:29;;;;;;;55.80;11.00;;;;;;;13.78;52.75;99274.06;27278;1216;3026116;-67
2021/10/21 15:37:58;;;;;;;76.80;18.90;;;;;;;13.71;53.32;99277.61;27220;1216;3053817;-67
2021/10/21 15:40:28;;;;;;;76.70;18.50;;;;;;;13.64;53.59;99270.39;27216;1209;3028474;-66
2021/10/21 15:42:57;;;;;;;58.10;16.20;;;;;;;13.53;54.40;99274.70;27223;1216;3047800;-64
2021/10/21 16:10:59;;;;;;;15.40;5.70;;;;;;;12.93;59.04;99268.44;27213;1216;3049606;-74
2021/10/21 16:13:29;;;;;;;21.80;6.40;;;;;;;12.91;59.31;99271.87;27279;1216;3055372;-75
2021/10/21 16:16:02;;;;;;;17.10;6.90;;;;;;;12.84;59.92;99268.36;27245;1216;3026480;-72
2021/10/21 16:18:32;;;;;;;21.40;6.30;;;;;;;12.79;60.19;99270.84;27241;1216;3026351;-67
2021/10/21 16:21:07;;;;;;;12.40;4.90;;;;;;;12.78;60.75;99264.92;27199;1216;3026828;-73
2021/10/21 16:23:39;;;;;;;15.00;5.30;;;;;;;12.81;60.78;99265.80;27262;1216;3051773;-71
2021/10/21 16:29:00;;;;;;;18.70;5.30;;;;;;;12.70;61.45;99267.10;27245;1216;3055569;-68
2021/10/21 16:31:29;;;;;;;12.80;4.60;;;;;;;12.67;61.97;99264.31;27246;1216;3053493;-66
2021/10/21 16:33:58;;;;;;;14.60;5.10;;;;;;;12.64;62.33;99268.76;27350;1215;3027280;-71
2021/10/21 16:36:27;;;;;;;20.20;5.30;;;;;;;12.66;62.22;99266.13;27283;1216;3057543;-74
2021/10/21 16:38:56;;;;;;;13.70;5.30;;;;;;;12.61;62.59;99263.33;27272;1216;3025843;-63
2021/10/21 16:41:25;;;;;;;23.60;6.10;;;;;;;12.49;63.13;99266.15;27306;1216;3026183;-73
2021/10/21 16:43:54;;;;;;;16.60;6.20;;;;;;;12.45;63.78;99265.91;27220;1216;3028102;-71
2021/10/21 16:46:24;;;;;;;16.80;5.80;;;;;;;12.45;63.58;99271.71;27211;1216;3051236;-72
2021/10/21 16:48:56;;;;;;;19.30;6.30;;;;;;;12.44;64.11;99269.98;27242;1216;3025833;-73
2021/10/21 16:51:27;;;;;;;15.30;6.50;;;;;;;12.41;64.51;99272.85;27246;1216;3026113;-67
2021/10/21 16:53:56;;;;;;;17.60;5.70;;;;;;;12.41;64.66;99271.61;27232;1218;3027362;-70
2021/10/21 16:56:25;;;;;;;20.90;6.80;;;;;;;12.40;64.87;99267.14;27249;1216;3026695;-72
2021/10/21 16:58:54;;;;;;;16.40;5.10;;;;;;;12.35;65.40;99266.58;27233;1221;3049226;-74
2021/10/21 17:01:25;;;;;;;27.00;6.80;;;;;;;12.79;64.19;99266.98;27221;1216;3027496;-73
2021/10/21 17:03:55;;;;;;;19.40;6.30;;;;;;;13.05;63.25;99254.17;27243;1216;3054999;-68
2021/10/21 17:06:24;;;;;;;26.00;7.60;;;;;;;13.11;63.21;99261.10;27275;1216;3028345;-72
2021/10/21 17:08:54;;;;;;;16.30;7.00;;;;;;;13.06;63.38;99259.37;27202;1216;3048991;-73
2021/10/21 17:11:24;;;;;;;19.50;6.30;;;;;;;12.88;63.94;99258.75;27246;1216;3026763;-73
2021/10/21 17:13:53;;;;;;;19.10;6.50;;;;;;;12.72;64.84;99262.73;27244;1216;3026330;-70
2021/10/21 17:16:22;;;;;;;16.60;5.80;;;;;;;12.68;64.83;99248.77;27261;1216;3026067;-71
2021/10/21 17:18:53;;;;;;;17.40;6.00;;;;;;;12.50;65.84;99255.39;27294;1216;3052317;-67
2021/10/21 17:21:23;;;;;;;17.10;6.00;;;;;;;12.40;66.42;99243.58;27263;1216;3026392;-73
2021/10/21 17:23:52;;;;;;;22.00;6.50;;;;;;;12.34;66.67;99243.49;27232;1216;3028588;-65
2021/10/21 17:26:21;;;;;;;13.70;4.90;;;;;;;12.21;67.47;99248.27;27251;1216;3029914;-71
2021/10/21 17:28:49;;;;;;;14.80;5.40;;;;;;;12.32;67.09;99238.76;27252;1216;3049808;-73
2021/10/21 17:31:20;;;;;;;20.10;6.30;;;;;;;12.83;65.22;99230.46;27277;1216;3025906;-69
2021/10/21 17:33:49;;;;;;;16.10;6.50;;;;;;;12.73;65.36;99236.85;27259;1216;3025940;-68
2021/10/21 17:36:19;;;;;;;22.00;7.50;;;;;;;12.56;65.47;99227.31;27314;1209;3026424;-73
2021/10/21 17:38:48;;;;;;;20.00;7.50;;;;;;;12.52;65.30;99223.24;27339;1216;3025997;-67
2021/10/21 17:41:17;;;;;;;22.20;7.10;;;;;;;12.47;65.51;99218.14;27357;1216;3050674;-73
2021/10/21 17:43:46;;;;;;;20.20;8.30;;;;;;;12.30;66.21;99218.88;27314;1216;3025932;-77
2021/10/21 17:46:15;;;;;;;23.00;6.70;;;;;;;12.25;66.52;99208.85;27320;1216;3027332;-69
2021/10/21 17:48:46;;;;;;;13.50;5.70;;;;;;;12.06;67.19;99214.95;27334;1216;3048069;-68
2021/10/21 17:51:16;;;;;;;19.10;6.70;;;;;;;12.03;67.76;99214.45;27430;1216;3026455;-69
2021/10/21 17:53:49;;;;;;;12.40;5.40;;;;;;;12.02;68.17;99214.83;27287;1216;3051429;-71
2021/10/21 17:56:18;;;;;;;17.70;5.90;;;;;;;12.41;66.86;99207.33;27260;1216;3027961;-72
2021/10/21 17:58:47;;;;;;;11.90;5.10;;;;;;;12.76;65.61;99196.73;27208;1216;3029376;-77
2021/10/21 18:01:17;;;;;;;13.60;5.20;;;;;;;12.73;65.67;99198.48;27293;1215;3026208;-67
2021/10/21 18:03:45;;;;;;;14.70;5.60;;;;;;;12.62;65.71;99189.34;27228;1216;3027976;-67
2021/10/21 18:06:14;;;;;;;16.40;5.90;;;;;;;12.42;66.59;99196.90;27282;1216;3051641;-68
2021/10/21 18:08:43;;;;;;;18.50;5.50;;;;;;;12.27;67.52;99192.23;27303;1216;3026387;-67
2021/10/21 18:11:13;;;;;;;18.60;5.70;;;;;;;12.13;68.06;99187.36;27251;1215;3055019;-72
2021/10/21 18:13:43;;;;;;;15.80;6.20;;;;;;;12.04;68.60;99179.63;27261;1215;3025634;-66
2021/10/21 18:16:11;;;;;;;15.80;5.30;;;;;;;11.95;69.34;99182.83;27255;1215;3027156;-72
2021/10/21 18:18:40;;;;;;;14.70;5.80;;;;;;;12.33;68.15;99172.78;27253;1215;3059463;-72
2021/10/21 18:21:09;;;;;;;16.90;6.10;;;;;;;12.47;67.49;99171.42;27233;1215;3027273;-70
2021/10/21 18:23:39;;;;;;;14.70;6.60;;;;;;;12.46;67.40;99172.02;27297;1215;3051467;-69
2021/10/21 18:26:08;;;;;;;18.50;6.70;;;;;;;12.38;67.88;99166.26;27204;1215;3027083;-64
2021/10/21 18:28:41;;;;;;;16.80;7.10;;;;;;;12.13;69.00;99170.73;27232;1215;3026314;-71
2021/10/21 18:31:11;;;;;;;19.10;7.10;;;;;;;11.92;70.23;99173.02;27249;1215;3026230;-70
2021/10/21 18:33:41;;;;;;;19.70;7.40;;;;;;;11.94;70.10;99163.77;27296;1215;3026737;-69
2021/10/21 18:36:10;;;;;;;14.90;5.20;;;;;;;11.77;70.94;99165.84;27300;1215;3026878;-67
2021/10/21 18:38:39;;;;;;;17.20;6.20;;;;;;;12.23;69.66;99158.77;27266;1216;3026848;-71
2021/10/21 18:41:09;;;;;;;21.50;6.90;;;;;;;12.45;68.95;99151.02;27267;1215;3026445;-71
2021/10/21 18:43:38;;;;;;;18.70;7.70;;;;;;;12.26;69.54;99143.98;27280;1215;3025815;-70
2021/10/21 18:46:07;;;;;;;22.60;8.00;;;;;;;12.13;70.34;99140.48;27251;1215;3027371;-67
2021/10/21 18:48:36;;;;;;;20.20;7.40;;;;;;;11.88;71.32;99145.25;27258;1215;3053452;-67
2021/10/21 18:51:05;;;;;;;14.80;6.60;;;;;;;11.76;71.83;99137.81;27211;1209;3026842;-65
2021/10/21 18:53:34;;;;;;;11.50;5.50;;;;;;;11.59;72.84;99139.75;27254;1216;3050938;-70
2021/10/21 18:56:08;;;;;;;17.40;5.40;;;;;;;11.85;72.28;99145.09;27259;1215;3025972;-68
2021/10/21 18:58:38;;;;;;;13.30;5.80;;;;;;;12.03;71.78;99131.23;27182;1216;3068364;-68
2021/10/21 19:01:08;;;;;;;20.70;6.10;;;;;;;11.98;72.02;99135.13;27330;1215;3026430;-73
2021/10/21 19:03:37;;;;;;;17.30;6.70;;;;;;;11.81;72.80;99128.19;27237;1210;3026944;-69
2021/10/21 19:06:07;;;;;;;18.70;6.70;;;;;;;11.74;73.24;99120.23;27249;1215;3025906;-68
2021/10/21 19:08:37;;;;;;;15.70;5.30;;;;;;;11.57;74.24;99123.21;27179;1215;3049371;-69
2021/10/21 19:11:06;;;;;;;19.10;6.30;;;;;;;11.91;73.45;99124.83;27224;1209;3026759;-69
2021/10/21 19:13:36;;;;;;;19.30;6.60;;;;;;;11.97;73.04;99123.07;27318;1215;3029680;-66
2021/10/21 19:16:05;;;;;;;18.30;7.10;;;;;;;11.86;73.40;99127.48;27208;1216;3048301;-72
2021/10/21 19:18:34;;;;;;;17.20;8.90;;;;;;;11.79;73.87;99130.98;27244;1215;3026221;-71
2021/10/21 19:21:03;;;;;;;22.00;9.20;;;;;;;11.61;74.59;99130.98;27226;1216;3026420;-67
2021/10/21 19:23:32;;;;;;;19.70;6.70;;;;;;;11.51;75.02;99123.11;27250;1215;3048832;-71
2021/10/21 19:26:03;;;;;;;18.90;7.40;;;;;;;11.84;74.18;99108.67;27253;1216;3027324;-69
2021/10/21 19:28:31;;;;;;;20.10;7.10;;;;;;;11.91;73.70;99113.78;27229;1215;3028872;-68
2021/10/21 19:31:04;;;;;;;16.30;7.30;;;;;;;11.89;73.81;99115.18;27238;1215;3050987;-73
2021/10/21 19:33:35;;;;;;;24.70;7.20;;;;;;;11.66;74.56;99123.10;27261;1216;3055320;-66
2021/10/21 19:36:04;;;;;;;16.70;6.80;;;;;;;11.53;75.04;99121.59;27264;1216;3026103;-70
2021/10/21 19:38:34;;;;;;;19.70;6.80;;;;;;;11.60;75.02;99113.01;27237;1217;3050411;-70
2021/10/21 19:41:03;;;;;;;25.10;9.30;;;;;;;11.88;73.77;99124.36;27250;1215;3026833;-75
2021/10/21 19:43:32;;;;;;;23.30;11.70;;;;;;;11.77;74.17;99112.73;27244;1215;3025839;-69
2021/10/21 19:46:03;;;;;;;25.90;12.70;;;;;;;11.63;74.60;99114.90;27214;1215;3046986;-69
2021/10/21 19:48:32;;;;;;;27.70;12.30;;;;;;;11.44;75.31;99131.45;27267;1215;3026284;-68
2021/10/21 19:51:03;;;;;;;23.00;10.20;;;;;;;11.42;75.54;99130.91;27248;1215;3026681;-71
2021/10/21 19:53:34;;;;;;;40.30;12.90;;;;;;;11.52;75.36;99114.11;27223;1217;3050571;-70
2021/10/21 19:56:04;;;;;;;42.60;15.40;;;;;;;11.79;74.09;99114.52;27306;1216;3028237;-73
2021/10/21 19:58:35;;;;;;;45.40;15.50;;;;;;;11.59;74.81;99116.79;27242;1215;3027366;-74
2021/10/21 20:01:05;;;;;;;46.90;15.00;;;;;;;11.47;75.23;99109.02;27231;1218;3029607;-74
2021/10/21 20:03:37;;;;;;;42.70;13.20;;;;;;;11.35;75.73;99104.38;27222;1215;3050915;-70
2021/10/21 20:06:08;;;;;;;52.50;15.60;;;;;;;11.52;75.28;99103.23;27240;1215;3054231;-72
2021/10/21 20:08:38;;;;;;;49.80;15.90;;;;;;;11.62;74.87;99099.32;27217;1216;3030286;-68
2021/10/21 20:11:08;;;;;;;47.10;16.80;;;;;;;11.48;75.19;99101.93;27214;1216;3053664;-70
2021/10/21 20:13:40;;;;;;;38.90;13.50;;;;;;;11.44;75.45;99100.80;27231;1215;3054136;-70
2021/10/21 20:16:12;;;;;;;41.90;12.90;;;;;;;11.19;76.38;99100.56;27264;1215;3026435;-68
2021/10/21 20:18:41;;;;;;;29.60;10.50;;;;;;;11.25;76.35;99095.06;27219;1215;3053181;-69
2021/10/21 20:21:10;;;;;;;39.80;11.90;;;;;;;11.59;75.05;99103.41;27240;1215;3026441;-74
2021/10/21 20:23:41;;;;;;;41.50;12.40;;;;;;;11.53;75.10;99102.23;27277;1215;3049685;-71
2021/10/21 20:26:11;;;;;;;38.40;12.80;;;;;;;11.59;74.77;99096.40;27302;1215;3026039;-70
2021/10/21 20:28:40;;;;;;;36.60;12.90;;;;;;;11.33;75.77;99103.80;27201;1215;3026235;-67
2021/10/21 20:31:09;;;;;;;33.00;11.10;;;;;;;11.18;76.52;99101.02;27219;1215;3050603;-72
2021/10/21 20:33:39;;;;;;;27.40;9.30;;;;;;;11.52;75.32;99107.23;27238;1215;3026464;-75
2021/10/21 20:36:08;;;;;;;22.20;9.50;;;;;;;11.65;74.63;99113.17;27279;1216;3026090;-65
2021/10/21 20:38:37;;;;;;;27.40;9.70;;;;;;;11.64;74.69;99106.02;27267;1216;3026143;-74
2021/10/21 20:41:07;;;;;;;24.40;9.10;;;;;;;11.38;75.50;99111.02;27237;1216;3052168;-68
2021/10/21 20:43:39;;;;;;;26.60;9.30;;;;;;;11.10;76.75;99122.43;27220;1216;3025765;-68
2021/10/21 20:46:07;;;;;;;17.30;6.00;;;;;;;11.06;77.07;99111.98;27278;1216;3028158;-76
2021/10/21 20:48:37;;;;;;;14.00;5.50;;;;;;;11.30;76.06;99124.73;27223;1216;3026478;-67
2021/10/21 20:51:06;;;;;;;12.50;6.20;;;;;;;11.61;75.02;99115.72;27320;1216;3051518;-71
2021/10/21 20:53:34;;;;;;;19.10;6.40;;;;;;;11.45;75.35;99116.85;27328;1218;3028713;-67
2021/10/21 20:56:04;;;;;;;15.40;4.90;;;;;;;11.26;76.05;99118.11;27289;1217;3054408;-68
2021/10/21 20:58:34;;;;;;;20.60;6.00;;;;;;;11.05;77.00;99113.65;27272;1216;3030219;-69
2021/10/21 21:01:03;;;;;;;13.70;5.30;;;;;;;11.13;77.13;99112.04;27215;1216;3049032;-66
2021/10/21 21:03:34;;;;;;;14.30;6.50;;;;;;;11.50;75.98;99105.26;27263;1218;3028197;-67
2021/10/21 21:06:03;;;;;;;16.40;6.90;;;;;;;11.54;75.73;99096.57;27211;1218;3026788;-68
2021/10/21 21:08:32;;;;;;;15.80;6.00;;;;;;;11.39;76.01;99093.96;27256;1218;3025957;-71
2021/10/21 21:11:00;;;;;;;28.80;10.00;;;;;;;11.32;76.35;99096.33;27224;1216;3050905;-73
2021/10/21 21:13:29;;;;;;;27.60;8.90;;;;;;;11.11;77.62;99096.77;27284;1216;3026339;-67
2021/10/21 21:15:58;;;;;;;25.00;8.90;;;;;;;11.39;76.79;99096.90;27275;1216;3050884;-65
2021/10/21 21:18:27;;;;;;;29.20;9.80;;;;;;;11.46;76.32;99080.52;27271;1216;3026502;-72
2021/10/21 21:20:57;;;;;;;28.10;10.10;;;;;;;11.36;77.01;99082.58;27277;1213;3070111;-71
2021/10/21 21:23:29;;;;;;;18.50;8.30;;;;;;;11.21;77.60;99077.80;27256;1209;3028163;-64
2021/10/21 21:25:59;;;;;;;15.80;4.70;;;;;;;11.26;77.60;99080.32;27221;1216;3050437;-66
2021/10/21 21:28:27;;;;;;;15.70;6.80;;;;;;;11.44;77.11;99077.85;27243;1216;3027842;-66
2021/10/21 21:30:56;;;;;;;23.70;8.80;;;;;;;11.48;76.78;99084.75;27238;1222;3051910;-67
2021/10/21 21:33:25;;;;;;;31.50;8.60;;;;;;;11.39;77.11;99077.51;27195;1218;3026008;-67
2021/10/21 21:35:55;;;;;;;17.50;7.00;;;;;;;11.33;77.39;99084.02;27228;1217;3051145;-71
2021/10/21 21:38:25;;;;;;;16.40;6.20;;;;;;;11.28;77.69;99084.56;27209;1216;3025975;-67
2021/10/21 21:40:55;;;;;;;22.00;7.50;;;;;;;11.64;76.83;99077.81;27267;1216;3026541;-70
2021/10/21 21:43:24;;;;;;;15.40;6.70;;;;;;;11.52;76.88;99068.47;27279;1216;3026469;-68
2021/10/21 21:45:53;;;;;;;13.30;5.90;;;;;;;11.59;76.70;99071.54;27259;1216;3026903;-70
2021/10/21 21:48:23;;;;;;;16.50;7.10;;;;;;;11.47;77.04;99069.39;27390;1216;3052082;-66
2021/10/21 21:50:51;;;;;;;13.50;4.40;;;;;;;11.31;77.75;99062.23;27603;1216;3025786;-69
2021/10/21 21:53:20;;;;;;;12.20;4.50;;;;;;;11.53;77.37;99071.41;27216;1218;3054939;-66
2021/10/21 21:55:49;;;;;;;14.60;5.90;;;;;;;11.67;76.57;99043.39;27254;1216;3026116;-67
2021/10/21 21:58:18;;;;;;;13.80;5.90;;;;;;;11.65;76.54;99053.86;27357;1219;3048926;-68
2021/10/21 22:00:48;;;;;;;12.50;6.00;;;;;;;11.61;76.66;99046.95;27277;1218;3028666;-68
2021/10/21 22:03:17;;;;;;;11.70;4.60;;;;;;;11.56;77.39;99051.39;27262;1216;3058286;-71
2021/10/21 22:05:47;;;;;;;14.40;4.90;;;;;;;11.88;75.83;99047.47;27250;1216;3026000;-73
2021/10/21 22:08:17;;;;;;;12.90;4.90;;;;;;;12.03;75.12;99047.52;27239;1216;3026286;-65
2021/10/21 22:10:47;;;;;;;14.40;5.50;;;;;;;12.06;74.97;99067.25;27210;1215;3026653;-69
2021/10/21 22:13:17;;;;;;;12.50;5.00;;;;;;;11.85;75.82;99055.39;27213;1216;3026310;-73
2021/10/21 22:15:46;;;;;;;12.60;4.40;;;;;;;11.54;76.99;99064.10;27232;1219;3028447;-68
2021/10/21 22:18:18;;;;;;;10.50;4.90;;;;;;;11.88;75.77;99044.88;27246;1216;3053172;-68
2021/10/21 22:20:47;;;;;;;12.60;4.40;;;;;;;11.86;75.87;99056.05;27278;1219;3026815;-71
2021/10/21 22:23:16;;;;;;;10.70;4.80;;;;;;;11.79;75.82;99055.01;27252;1209;3026008;-68
2021/10/21 22:25:45;;;;;;;12.30;5.00;;;;;;;11.64;76.35;99049.56;27188;1216;3052053;-71
2021/10/21 22:28:16;;;;;;;8.80;4.20;;;;;;;11.55;76.69;99057.92;27264;1216;3027836;-70
2021/10/21 22:30:45;;;;;;;9.00;4.20;;;;;;;12.11;74.75;99059.71;27236;1216;3027070;-72
2021/10/21 22:33:14;;;;;;;9.90;4.90;;;;;;;12.18;74.02;99065.68;27245;1210;3026434;-71
2021/10/21 22:35:43;;;;;;;12.00;4.80;;;;;;;11.89;74.63;99067.92;27270;1216;3027980;-65
2021/10/21 22:38:12;;;;;;;10.30;4.80;;;;;;;11.78;75.02;99057.64;27278;1216;3047745;-65
2021/10/21 22:40:44;;;;;;;11.10;4.80;;;;;;;11.61;75.76;99052.58;27210;1216;3026032;-69
2021/10/21 22:43:13;;;;;;;11.70;4.10;;;;;;;11.63;75.84;99052.47;27221;1216;3026044;-67
2021/10/21 22:45:43;;;;;;;12.90;4.60;;;;;;;11.96;74.71;99055.23;27239;1209;3026612;-68
2021/10/21 22:48:12;;;;;;;9.20;4.50;;;;;;;12.06;73.95;99044.85;27238;1208;3025923;-67
2021/10/21 22:50:42;;;;;;;8.70;5.20;;;;;;;12.17;73.04;99037.15;27219;1216;3050255;-69
2021/10/21 22:53:12;;;;;;;11.30;5.70;;;;;;;11.89;73.87;99040.95;27255;1216;3025823;-67
2021/10/21 22:55:41;;;;;;;13.90;6.80;;;;;;;11.80;74.09;99034.39;27205;1216;3026690;-66
2021/10/21 22:58:09;;;;;;;10.80;4.70;;;;;;;11.62;74.85;99030.05;27200;1216;3025947;-69
2021/10/21 23:00:40;;;;;;;10.90;4.50;;;;;;;11.94;73.88;99030.26;27257;1216;3057707;-71
2021/10/21 23:03:19;;;;;;;10.90;5.80;;;;;;;12.33;72.66;99024.36;27194;1216;3048481;-65
2021/10/21 23:05:49;;;;;;;16.10;6.10;;;;;;;12.07;73.29;99032.83;27245;1219;3054421;-70
2021/10/21 23:08:18;;;;;;;12.20;6.00;;;;;;;11.89;73.72;99027.58;27212;1210;3026361;-65
2021/10/21 23:10:47;;;;;;;14.40;6.20;;;;;;;11.55;75.07;99019.33;27209;1216;3048618;-69
2021/10/21 23:13:17;;;;;;;10.10;4.40;;;;;;;11.56;75.24;99012.21;27198;1216;3025861;-72
2021/10/21 23:15:46;;;;;;;7.80;4.40;;;;;;;11.92;74.35;99015.11;27227;1216;3057192;-65
2021/10/21 23:18:15;;;;;;;10.00;5.40;;;;;;;12.14;73.18;99017.23;27234;1216;3026371;-69
2021/10/21 23:20:44;;;;;;;13.90;5.70;;;;;;;12.03;73.34;99020.64;27218;1216;3053799;-67
2021/10/21 23:23:14;;;;;;;14.30;6.00;;;;;;;12.00;73.22;99009.65;27213;1216;3026403;-70
2021/10/21 23:25:44;;;;;;;14.70;6.00;;;;;;;11.77;74.12;99000.58;27187;1216;3026046;-68
2021/10/21 23:28:13;;;;;;;10.80;4.80;;;;;;;11.56;75.19;98995.08;27218;1216;3026838;-69
2021/10/21 23:30:43;;;;;;;7.30;4.30;;;;;;;11.94;74.07;99001.27;27191;1216;3056366;-74
2021/10/21 23:33:12;;;;;;;12.80;5.60;;;;;;;12.18;73.02;98999.48;27224;1216;3027382;-65
2021/10/21 23:35:43;;;;;;;10.00;5.70;;;;;;;12.07;73.65;98992.27;27223;1216;3026657;-67
2021/10/21 23:38:15;;;;;;;10.20;5.40;;;;;;;12.06;73.54;98990.55;27241;1209;3026637;-70
2021/10/21 23:40:45;;;;;;;8.80;5.80;;;;;;;11.87;74.22;98988.81;27242;1216;3048879;-67
2021/10/21 23:43:14;;;;;;;12.40;4.70;;;;;;;11.69;75.17;98991.34;27225;1216;3028279;-69
2021/10/21 23:45:43;;;;;;;14.40;5.10;;;;;;;11.92;74.43;98988.79;27229;1216;3055407;-69
2021/10/21 23:48:13;;;;;;;10.90;4.80;;;;;;;12.29;73.40;98983.63;27238;1216;3026336;-68
2021/10/21 23:50:42;;;;;;;10.90;4.80;;;;;;;12.10;73.58;98972.69;27225;1216;3026552;-66
2021/10/21 23:53:12;;;;;;;11.40;5.90;;;;;;;12.01;73.83;98965.48;27245;1216;3057669;-68
2021/10/21 23:55:41;;;;;;;11.20;6.10;;;;;;;11.82;75.03;98963.02;27230;1216;3026343;-68
2021/10/21 23:58:12;;;;;;;16.50;4.40;;;;;;;11.62;76.12;98952.35;27233;1219;3026321;-69
